sensor_id;sensor_type;location;lat;lon;timestamp;temperature;humidity
11961;DHT22;6040;49.358;11.140;2022-11-20T00:02:20;0.80;99.90
11961;DHT22;6040;49.358;11.140;2022-11-20T00:04:47;0.90;99.90
11961;DHT22;6040;49.358;11.140;2022-11-20T00:07:14;0.80;99.90
11961;DHT22;6040;49.358;11.140;2022-11-20T00:09:40;0.80;99.90
11961;DHT22;6040;49.358;11.140;2022-11-20T00:12:07;0.80;99.90
11961;DHT22;6040;49.358;11.140;2022-11-20T00:14:34;0.80;99.90
11961;DHT22;6040;49.358;11.140;2022-11-20T00:17:02;0.80;99.90
11961;DHT22;6040;49.358;11.140;2022-11-20T00:19:29;0.80;99.90
11961;DHT22;6040;49.358;11.140;2022-11-20T00:21:56;0.80;99.90
11961;DHT22;6040;49.358;11.140;2022-11-20T00:24:23;2.50;99.90
11961;DHT22;6040;49.358;11.140;2022-11-20T00:26:49;0.90;99.90
11961;DHT22;6040;49.358;11.140;2022-11-20T00:29:16;0.80;99.90
11961;DHT22;6040;49.358;11.140;2022-11-20T00:31:43;0.70;99.90
11961;DHT22;6040;49.358;11.140;2022-11-20T00:34:11;2.80;99.90
11961;DHT22;6040;49.358;11.140;2022-11-20T00:36:38;0.80;99.90
11961;DHT22;6040;49.358;11.140;2022-11-20T00:39:07;0.70;99.90
11961;DHT22;6040;49.358;11.140;2022-11-20T00:41:34;0.70;99.90
11961;DHT22;6040;49.358;11.140;2022-11-20T00:44:17;0.70;99.90
11961;DHT22;6040;49.358;11.140;2022-11-20T00:46:43;0.70;99.90
11961;DHT22;6040;49.358;11.140;2022-11-20T00:49:11;0.70;99.90
11961;DHT22;6040;49.358;11.140;2022-11-20T00:51:38;0.70;99.90
11961;DHT22;6040;49.358;11.140;2022-11-20T00:54:05;0.70;99.90
11961;DHT22;6040;49.358;11.140;2022-11-20T00:56:32;0.70;99.90
11961;DHT22;6040;49.358;11.140;2022-11-20T00:59:00;0.70;99.90
11961;DHT22;6040;49.358;11.140;2022-11-20T01:01:27;0.70;99.90
11961;DHT22;6040;49.358;11.140;2022-11-20T01:03:56;0.80;99.90
11961;DHT22;6040;49.358;11.140;2022-11-20T01:06:26;3.50;99.90
11961;DHT22;6040;49.358;11.140;2022-11-20T01:08:57;0.70;99.90
11961;DHT22;6040;49.358;11.140;2022-11-20T01:11:25;0.70;99.90
11961;DHT22;6040;49.358;11.140;2022-11-20T01:13:53;0.70;99.90
11961;DHT22;6040;49.358;11.140;2022-11-20T01:16:21;0.70;99.90
11961;DHT22;6040;49.358;11.140;2022-11-20T01:18:50;0.70;99.90
11961;DHT22;6040;49.358;11.140;2022-11-20T01:21:19;0.70;99.90
11961;DHT22;6040;49.358;11.140;2022-11-20T01:23:48;0.70;99.90
11961;DHT22;6040;49.358;11.140;2022-11-20T01:26:17;2.10;99.90
11961;DHT22;6040;49.358;11.140;2022-11-20T01:28:45;0.80;99.90
11961;DHT22;6040;49.358;11.140;2022-11-20T01:31:14;0.80;99.90
11961;DHT22;6040;49.358;11.140;2022-11-20T01:36:57;0.70;99.90
11961;DHT22;6040;49.358;11.140;2022-11-20T01:39:26;0.70;99.90
11961;DHT22;6040;49.358;11.140;2022-11-20T01:41:54;0.70;99.90
11961;DHT22;6040;49.358;11.140;2022-11-20T01:44:51;0.60;99.90
11961;DHT22;6040;49.358;11.140;2022-11-20T01:47:23;0.60;99.90
11961;DHT22;6040;49.358;11.140;2022-11-20T01:49:55;0.70;99.90
11961;DHT22;6040;49.358;11.140;2022-11-20T01:52:24;0.70;99.90
11961;DHT22;6040;49.358;11.140;2022-11-20T01:54:57;3.20;99.90
11961;DHT22;6040;49.358;11.140;2022-11-20T01:57:27;1.40;99.90
11961;DHT22;6040;49.358;11.140;2022-11-20T02:00:00;0.70;99.90
11961;DHT22;6040;49.358;11.140;2022-11-20T02:02:28;0.70;99.90
11961;DHT22;6040;49.358;11.140;2022-11-20T02:04:57;0.70;99.90
11961;DHT22;6040;49.358;11.140;2022-11-20T02:07:26;0.70;99.90
11961;DHT22;6040;49.358;11.140;2022-11-20T02:09:55;0.70;99.90
11961;DHT22;6040;49.358;11.140;2022-11-20T02:12:22;0.70;99.90
11961;DHT22;6040;49.358;11.140;2022-11-20T02:15:07;0.70;99.90
11961;DHT22;6040;49.358;11.140;2022-11-20T02:17:33;0.70;99.90
11961;DHT22;6040;49.358;11.140;2022-11-20T02:20:00;0.70;99.90
11961;DHT22;6040;49.358;11.140;2022-11-20T02:22:31;0.70;99.90
11961;DHT22;6040;49.358;11.140;2022-11-20T02:25:02;0.80;99.90
11961;DHT22;6040;49.358;11.140;2022-11-20T02:27:30;0.70;99.90
11961;DHT22;6040;49.358;11.140;2022-11-20T02:29:59;3.60;99.90
11961;DHT22;6040;49.358;11.140;2022-11-20T02:32:29;0.80;99.90
11961;DHT22;6040;49.358;11.140;2022-11-20T02:34:56;0.70;99.90
11961;DHT22;6040;49.358;11.140;2022-11-20T02:37:26;0.80;99.90
11961;DHT22;6040;49.358;11.140;2022-11-20T02:40:00;0.80;99.90
11961;DHT22;6040;49.358;11.140;2022-11-20T02:42:27;0.80;99.90
11961;DHT22;6040;49.358;11.140;2022-11-20T02:44:54;0.80;99.90
11961;DHT22;6040;49.358;11.140;2022-11-20T02:47:21;0.80;99.90
11961;DHT22;6040;49.358;11.140;2022-11-20T02:49:47;2.60;99.90
11961;DHT22;6040;49.358;11.140;2022-11-20T02:52:14;0.80;99.90
11961;DHT22;6040;49.358;11.140;2022-11-20T02:54:41;0.80;99.90
11961;DHT22;6040;49.358;11.140;2022-11-20T02:57:09;0.90;99.90
11961;DHT22;6040;49.358;11.140;2022-11-20T02:59:36;0.80;99.90
11961;DHT22;6040;49.358;11.140;2022-11-20T03:02:03;0.90;99.90
11961;DHT22;6040;49.358;11.140;2022-11-20T03:04:30;0.90;99.90
11961;DHT22;6040;49.358;11.140;2022-11-20T03:06:57;0.90;99.90
11961;DHT22;6040;49.358;11.140;2022-11-20T03:09:24;0.90;99.90
11961;DHT22;6040;49.358;11.140;2022-11-20T03:11:51;0.90;99.90
11961;DHT22;6040;49.358;11.140;2022-11-20T03:14:19;0.90;99.90
11961;DHT22;6040;49.358;11.140;2022-11-20T03:16:46;0.90;99.90
11961;DHT22;6040;49.358;11.140;2022-11-20T03:19:13;0.90;99.90
11961;DHT22;6040;49.358;11.140;2022-11-20T03:21:40;1.00;99.90
11961;DHT22;6040;49.358;11.140;2022-11-20T03:24:07;1.00;99.90
11961;DHT22;6040;49.358;11.140;2022-11-20T03:26:34;1.00;99.90
11961;DHT22;6040;49.358;11.140;2022-11-20T03:29:03;1.00;99.90
11961;DHT22;6040;49.358;11.140;2022-11-20T03:31:33;1.00;99.90
11961;DHT22;6040;49.358;11.140;2022-11-20T03:34:01;1.00;99.90
11961;DHT22;6040;49.358;11.140;2022-11-20T03:36:29;1.00;99.90
11961;DHT22;6040;49.358;11.140;2022-11-20T03:38:56;1.00;99.90
11961;DHT22;6040;49.358;11.140;2022-11-20T03:41:25;1.00;99.90
11961;DHT22;6040;49.358;11.140;2022-11-20T03:44:03;1.00;99.90
11961;DHT22;6040;49.358;11.140;2022-11-20T03:46:32;2.30;99.90
11961;DHT22;6040;49.358;11.140;2022-11-20T03:48:59;1.00;99.90
11961;DHT22;6040;49.358;11.140;2022-11-20T03:51:27;1.00;99.90
11961;DHT22;6040;49.358;11.140;2022-11-20T03:53:56;1.00;99.90
11961;DHT22;6040;49.358;11.140;2022-11-20T03:56:25;1.10;99.90
11961;DHT22;6040;49.358;11.140;2022-11-20T03:58:55;1.10;99.90
11961;DHT22;6040;49.358;11.140;2022-11-20T04:01:23;1.10;99.90
11961;DHT22;6040;49.358;11.140;2022-11-20T04:03:54;1.10;99.90
11961;DHT22;6040;49.358;11.140;2022-11-20T04:06:22;1.10;99.90
11961;DHT22;6040;49.358;11.140;2022-11-20T04:08:50;1.10;99.90
11961;DHT22;6040;49.358;11.140;2022-11-20T04:11:18;3.80;99.90
11961;DHT22;6040;49.358;11.140;2022-11-20T04:13:48;1.10;99.90
11961;DHT22;6040;49.358;11.140;2022-11-20T04:16:16;1.10;99.90
11961;DHT22;6040;49.358;11.140;2022-11-20T04:18:43;1.10;99.90
11961;DHT22;6040;49.358;11.140;2022-11-20T04:21:12;1.10;99.90
11961;DHT22;6040;49.358;11.140;2022-11-20T04:23:39;2.70;99.90
11961;DHT22;6040;49.358;11.140;2022-11-20T04:26:07;1.10;99.90
11961;DHT22;6040;49.358;11.140;2022-11-20T04:28:35;1.10;99.90
11961;DHT22;6040;49.358;11.140;2022-11-20T04:31:03;1.10;99.90
11961;DHT22;6040;49.358;11.140;2022-11-20T04:33:30;1.30;99.90
11961;DHT22;6040;49.358;11.140;2022-11-20T04:36:01;1.10;99.90
11961;DHT22;6040;49.358;11.140;2022-11-20T04:38:30;1.10;99.90
11961;DHT22;6040;49.358;11.140;2022-11-20T04:40:58;1.10;99.90
11961;DHT22;6040;49.358;11.140;2022-11-20T04:43:25;1.10;99.90
11961;DHT22;6040;49.358;11.140;2022-11-20T04:49:14;1.10;99.90
11961;DHT22;6040;49.358;11.140;2022-11-20T04:51:41;3.90;99.90
11961;DHT22;6040;49.358;11.140;2022-11-20T04:54:11;1.20;99.90
11961;DHT22;6040;49.358;11.140;2022-11-20T04:56:37;1.20;99.90
11961;DHT22;6040;49.358;11.140;2022-11-20T04:59:04;1.10;99.90
11961;DHT22;6040;49.358;11.140;2022-11-20T05:01:31;1.10;99.90
11961;DHT22;6040;49.358;11.140;2022-11-20T05:03:58;3.30;99.90
11961;DHT22;6040;49.358;11.140;2022-11-20T05:06:25;1.10;99.90
11961;DHT22;6040;49.358;11.140;2022-11-20T05:08:52;1.10;99.90
11961;DHT22;6040;49.358;11.140;2022-11-20T05:11:20;1.10;99.90
11961;DHT22;6040;49.358;11.140;2022-11-20T05:13:48;1.10;99.90
11961;DHT22;6040;49.358;11.140;2022-11-20T05:16:16;1.20;99.90
11961;DHT22;6040;49.358;11.140;2022-11-20T05:21:53;1.20;99.90
11961;DHT22;6040;49.358;11.140;2022-11-20T05:24:20;1.20;99.90
11961;DHT22;6040;49.358;11.140;2022-11-20T05:26:48;1.20;99.90
11961;DHT22;6040;49.358;11.140;2022-11-20T05:29:15;1.20;99.90
11961;DHT22;6040;49.358;11.140;2022-11-20T05:31:42;1.20;99.90
11961;DHT22;6040;49.358;11.140;2022-11-20T05:34:09;1.20;99.90
11961;DHT22;6040;49.358;11.140;2022-11-20T05:36:36;3.60;99.90
11961;DHT22;6040;49.358;11.140;2022-11-20T05:39:03;1.20;99.90
11961;DHT22;6040;49.358;11.140;2022-11-20T05:41:30;1.20;99.90
11961;DHT22;6040;49.358;11.140;2022-11-20T05:43:58;3.50;99.90
11961;DHT22;6040;49.358;11.140;2022-11-20T05:46:25;1.20;99.90
11961;DHT22;6040;49.358;11.140;2022-11-20T05:48:52;1.30;99.90
11961;DHT22;6040;49.358;11.140;2022-11-20T05:51:19;1.20;99.90
11961;DHT22;6040;49.358;11.140;2022-11-20T05:53:46;1.30;99.90
11961;DHT22;6040;49.358;11.140;2022-11-20T05:56:15;1.30;99.90
11961;DHT22;6040;49.358;11.140;2022-11-20T05:58:42;1.30;99.90
11961;DHT22;6040;49.358;11.140;2022-11-20T06:01:13;1.30;99.90
11961;DHT22;6040;49.358;11.140;2022-11-20T06:03:41;1.30;99.90
11961;DHT22;6040;49.358;11.140;2022-11-20T06:06:11;1.30;99.90
11961;DHT22;6040;49.358;11.140;2022-11-20T06:08:42;1.30;99.90
11961;DHT22;6040;49.358;11.140;2022-11-20T06:11:11;1.30;99.90
11961;DHT22;6040;49.358;11.140;2022-11-20T06:13:39;1.30;99.90
11961;DHT22;6040;49.358;11.140;2022-11-20T06:16:06;1.30;99.90
11961;DHT22;6040;49.358;11.140;2022-11-20T06:18:34;1.30;99.90
11961;DHT22;6040;49.358;11.140;2022-11-20T06:21:02;1.30;99.90
11961;DHT22;6040;49.358;11.140;2022-11-20T06:23:30;1.30;99.90
11961;DHT22;6040;49.358;11.140;2022-11-20T06:25:58;1.30;99.90
11961;DHT22;6040;49.358;11.140;2022-11-20T06:28:25;1.30;99.90
11961;DHT22;6040;49.358;11.140;2022-11-20T06:30:51;1.30;99.90
11961;DHT22;6040;49.358;11.140;2022-11-20T06:33:18;1.30;99.90
11961;DHT22;6040;49.358;11.140;2022-11-20T06:35:46;1.30;99.90
11961;DHT22;6040;49.358;11.140;2022-11-20T06:38:13;1.30;99.90
11961;DHT22;6040;49.358;11.140;2022-11-20T06:40:40;3.40;99.90
11961;DHT22;6040;49.358;11.140;2022-11-20T06:43:07;1.40;99.90
11961;DHT22;6040;49.358;11.140;2022-11-20T06:45:34;1.40;99.90
11961;DHT22;6040;49.358;11.140;2022-11-20T06:48:01;1.40;99.90
11961;DHT22;6040;49.358;11.140;2022-11-20T06:50:28;1.30;99.90
11961;DHT22;6040;49.358;11.140;2022-11-20T06:52:56;1.30;99.90
11961;DHT22;6040;49.358;11.140;2022-11-20T06:55:23;1.40;99.90
11961;DHT22;6040;49.358;11.140;2022-11-20T06:57:50;3.60;99.90
11961;DHT22;6040;49.358;11.140;2022-11-20T07:00:17;1.40;99.90
11961;DHT22;6040;49.358;11.140;2022-11-20T07:02:44;1.40;99.90
11961;DHT22;6040;49.358;11.140;2022-11-20T07:05:11;1.40;99.90
11961;DHT22;6040;49.358;11.140;2022-11-20T07:07:38;1.40;99.90
11961;DHT22;6040;49.358;11.140;2022-11-20T07:10:07;1.40;99.90
11961;DHT22;6040;49.358;11.140;2022-11-20T07:12:34;1.40;99.90
11961;DHT22;6040;49.358;11.140;2022-11-20T07:15:00;1.40;99.90
11961;DHT22;6040;49.358;11.140;2022-11-20T07:17:27;1.40;99.90
11961;DHT22;6040;49.358;11.140;2022-11-20T07:19:54;1.40;99.90
11961;DHT22;6040;49.358;11.140;2022-11-20T07:22:21;1.40;99.90
11961;DHT22;6040;49.358;11.140;2022-11-20T07:24:48;1.40;99.90
11961;DHT22;6040;49.358;11.140;2022-11-20T07:27:16;1.40;99.90
11961;DHT22;6040;49.358;11.140;2022-11-20T07:29:43;1.50;99.90
11961;DHT22;6040;49.358;11.140;2022-11-20T07:32:10;1.50;99.90
11961;DHT22;6040;49.358;11.140;2022-11-20T07:34:36;1.50;99.90
11961;DHT22;6040;49.358;11.140;2022-11-20T07:37:03;1.50;99.90
11961;DHT22;6040;49.358;11.140;2022-11-20T07:39:30;1.50;99.90
11961;DHT22;6040;49.358;11.140;2022-11-20T07:41:57;4.20;99.90
11961;DHT22;6040;49.358;11.140;2022-11-20T07:44:25;1.60;99.90
11961;DHT22;6040;49.358;11.140;2022-11-20T07:46:52;1.60;99.90
11961;DHT22;6040;49.358;11.140;2022-11-20T07:49:19;1.60;99.90
11961;DHT22;6040;49.358;11.140;2022-11-20T07:51:46;1.60;99.90
11961;DHT22;6040;49.358;11.140;2022-11-20T07:54:13;4.10;99.90
11961;DHT22;6040;49.358;11.140;2022-11-20T07:56:39;1.60;99.90
11961;DHT22;6040;49.358;11.140;2022-11-20T07:59:06;1.60;99.90
11961;DHT22;6040;49.358;11.140;2022-11-20T08:01:34;4.20;99.90
11961;DHT22;6040;49.358;11.140;2022-11-20T08:04:01;1.60;99.90
11961;DHT22;6040;49.358;11.140;2022-11-20T08:06:28;1.60;99.90
11961;DHT22;6040;49.358;11.140;2022-11-20T08:08:55;1.70;99.90
11961;DHT22;6040;49.358;11.140;2022-11-20T08:11:22;1.70;99.90
11961;DHT22;6040;49.358;11.140;2022-11-20T08:14:06;1.70;99.90
11961;DHT22;6040;49.358;11.140;2022-11-20T08:16:41;4.20;99.90
11961;DHT22;6040;49.358;11.140;2022-11-20T08:25:51;1.80;99.90
11961;DHT22;6040;49.358;11.140;2022-11-20T08:28:18;1.70;99.90
11961;DHT22;6040;49.358;11.140;2022-11-20T08:30:45;1.80;99.90
11961;DHT22;6040;49.358;11.140;2022-11-20T08:33:21;1.90;99.90
11961;DHT22;6040;49.358;11.140;2022-11-20T08:35:48;1.90;99.90
11961;DHT22;6040;49.358;11.140;2022-11-20T08:38:14;4.60;99.90
11961;DHT22;6040;49.358;11.140;2022-11-20T08:40:41;4.30;99.90
11961;DHT22;6040;49.358;11.140;2022-11-20T08:43:28;1.90;99.90
11961;DHT22;6040;49.358;11.140;2022-11-20T08:45:56;2.00;99.90
11961;DHT22;6040;49.358;11.140;2022-11-20T08:48:24;2.00;99.90
11961;DHT22;6040;49.358;11.140;2022-11-20T08:50:51;2.10;99.90
11961;DHT22;6040;49.358;11.140;2022-11-20T08:53:18;2.50;99.90
11961;DHT22;6040;49.358;11.140;2022-11-20T08:55:45;3.80;99.90
11961;DHT22;6040;49.358;11.140;2022-11-20T08:58:11;2.20;99.90
11961;DHT22;6040;49.358;11.140;2022-11-20T09:00:38;2.30;99.90
11961;DHT22;6040;49.358;11.140;2022-11-20T09:03:05;2.40;99.90
11961;DHT22;6040;49.358;11.140;2022-11-20T09:05:33;2.50;99.90
11961;DHT22;6040;49.358;11.140;2022-11-20T09:08:00;3.20;99.90
11961;DHT22;6040;49.358;11.140;2022-11-20T09:10:27;2.60;99.90
11961;DHT22;6040;49.358;11.140;2022-11-20T09:12:54;2.60;99.90
11961;DHT22;6040;49.358;11.140;2022-11-20T09:15:22;2.50;99.90
11961;DHT22;6040;49.358;11.140;2022-11-20T09:17:52;2.50;99.90
11961;DHT22;6040;49.358;11.140;2022-11-20T09:20:22;2.50;99.90
11961;DHT22;6040;49.358;11.140;2022-11-20T09:22:50;2.40;99.90
11961;DHT22;6040;49.358;11.140;2022-11-20T09:25:17;4.80;99.90
11961;DHT22;6040;49.358;11.140;2022-11-20T09:27:44;2.40;99.90
11961;DHT22;6040;49.358;11.140;2022-11-20T09:30:12;4.60;99.90
11961;DHT22;6040;49.358;11.140;2022-11-20T09:32:39;2.40;99.90
11961;DHT22;6040;49.358;11.140;2022-11-20T09:35:07;2.40;99.90
11961;DHT22;6040;49.358;11.140;2022-11-20T09:37:34;2.40;99.90
11961;DHT22;6040;49.358;11.140;2022-11-20T09:40:02;2.40;99.90
11961;DHT22;6040;49.358;11.140;2022-11-20T09:42:37;2.50;99.90
11961;DHT22;6040;49.358;11.140;2022-11-20T09:45:22;2.60;99.90
11961;DHT22;6040;49.358;11.140;2022-11-20T09:48:09;2.70;99.90
11961;DHT22;6040;49.358;11.140;2022-11-20T09:50:45;2.80;99.90
11961;DHT22;6040;49.358;11.140;2022-11-20T09:53:21;2.80;99.90
11961;DHT22;6040;49.358;11.140;2022-11-20T09:55:50;2.80;99.90
11961;DHT22;6040;49.358;11.140;2022-11-20T09:58:25;2.80;99.90
11961;DHT22;6040;49.358;11.140;2022-11-20T10:00:56;2.70;99.90
11961;DHT22;6040;49.358;11.140;2022-11-20T10:03:37;2.80;99.90
11961;DHT22;6040;49.358;11.140;2022-11-20T10:06:12;2.70;99.90
11961;DHT22;6040;49.358;11.140;2022-11-20T10:08:43;5.40;99.90
11961;DHT22;6040;49.358;11.140;2022-11-20T10:11:17;2.80;99.90
11961;DHT22;6040;49.358;11.140;2022-11-20T10:13:53;2.80;99.90
11961;DHT22;6040;49.358;11.140;2022-11-20T10:16:33;2.80;99.90
11961;DHT22;6040;49.358;11.140;2022-11-20T10:19:14;2.80;99.90
11961;DHT22;6040;49.358;11.140;2022-11-20T10:21:57;2.80;99.90
11961;DHT22;6040;49.358;11.140;2022-11-20T10:24:43;4.40;99.90
11961;DHT22;6040;49.358;11.140;2022-11-20T10:27:30;2.90;99.90
11961;DHT22;6040;49.358;11.140;2022-11-20T10:30:02;3.00;99.90
11961;DHT22;6040;49.358;11.140;2022-11-20T10:32:36;3.10;99.90
11961;DHT22;6040;49.358;11.140;2022-11-20T10:35:14;3.20;99.90
11961;DHT22;6040;49.358;11.140;2022-11-20T10:37:44;3.30;99.90
11961;DHT22;6040;49.358;11.140;2022-11-20T10:40:20;3.40;99.90
11961;DHT22;6040;49.358;11.140;2022-11-20T10:42:52;3.50;99.90
11961;DHT22;6040;49.358;11.140;2022-11-20T10:48:08;3.50;99.90
11961;DHT22;6040;49.358;11.140;2022-11-20T10:50:39;3.60;99.90
11961;DHT22;6040;49.358;11.140;2022-11-20T10:53:18;4.50;99.90
11961;DHT22;6040;49.358;11.140;2022-11-20T10:55:53;3.70;99.90
11961;DHT22;6040;49.358;11.140;2022-11-20T10:58:29;5.20;99.90
11961;DHT22;6040;49.358;11.140;2022-11-20T11:01:03;3.90;99.90
11961;DHT22;6040;49.358;11.140;2022-11-20T11:03:31;4.10;99.90
11961;DHT22;6040;49.358;11.140;2022-11-20T11:06:06;4.20;99.90
11961;DHT22;6040;49.358;11.140;2022-11-20T11:08:37;4.30;99.90
11961;DHT22;6040;49.358;11.140;2022-11-20T11:11:14;4.50;99.90
11961;DHT22;6040;49.358;11.140;2022-11-20T11:13:43;5.20;99.90
11961;DHT22;6040;49.358;11.140;2022-11-20T11:16:21;4.70;99.90
11961;DHT22;6040;49.358;11.140;2022-11-20T11:18:48;4.80;99.90
11961;DHT22;6040;49.358;11.140;2022-11-20T11:21:21;4.90;99.90
11961;DHT22;6040;49.358;11.140;2022-11-20T11:23:58;5.00;99.90
11961;DHT22;6040;49.358;11.140;2022-11-20T11:26:25;5.10;99.90
11961;DHT22;6040;49.358;11.140;2022-11-20T11:28:55;5.20;99.90
11961;DHT22;6040;49.358;11.140;2022-11-20T11:31:23;5.30;99.90
11961;DHT22;6040;49.358;11.140;2022-11-20T11:33:50;5.90;99.90
11961;DHT22;6040;49.358;11.140;2022-11-20T11:36:19;6.90;99.90
11961;DHT22;6040;49.358;11.140;2022-11-20T11:38:51;5.40;99.90
11961;DHT22;6040;49.358;11.140;2022-11-20T11:41:21;5.40;99.90
11961;DHT22;6040;49.358;11.140;2022-11-20T11:43:54;5.30;99.90
11961;DHT22;6040;49.358;11.140;2022-11-20T11:46:40;5.30;99.90
11961;DHT22;6040;49.358;11.140;2022-11-20T11:49:16;5.00;99.90
11961;DHT22;6040;49.358;11.140;2022-11-20T11:51:53;4.90;99.90
11961;DHT22;6040;49.358;11.140;2022-11-20T11:54:28;5.60;99.90
11961;DHT22;6040;49.358;11.140;2022-11-20T11:57:00;4.50;99.90
11961;DHT22;6040;49.358;11.140;2022-11-20T11:59:38;4.40;99.90
11961;DHT22;6040;49.358;11.140;2022-11-20T12:02:21;4.40;99.90
11961;DHT22;6040;49.358;11.140;2022-11-20T12:04:53;4.30;99.90
11961;DHT22;6040;49.358;11.140;2022-11-20T12:07:38;4.30;99.90
11961;DHT22;6040;49.358;11.140;2022-11-20T12:10:15;4.20;99.90
11961;DHT22;6040;49.358;11.140;2022-11-20T12:12:46;4.70;99.90
11961;DHT22;6040;49.358;11.140;2022-11-20T12:15:25;4.20;99.90
11961;DHT22;6040;49.358;11.140;2022-11-20T12:17:52;4.10;99.90
11961;DHT22;6040;49.358;11.140;2022-11-20T12:20:20;4.10;99.90
11961;DHT22;6040;49.358;11.140;2022-11-20T12:22:53;4.10;99.90
11961;DHT22;6040;49.358;11.140;2022-11-20T12:25:24;4.20;99.90
11961;DHT22;6040;49.358;11.140;2022-11-20T12:28:18;4.10;99.90
11961;DHT22;6040;49.358;11.140;2022-11-20T12:31:02;5.20;99.90
11961;DHT22;6040;49.358;11.140;2022-11-20T12:33:48;4.10;99.90
11961;DHT22;6040;49.358;11.140;2022-11-20T12:36:27;4.20;99.90
11961;DHT22;6040;49.358;11.140;2022-11-20T12:42:17;4.40;99.90
11961;DHT22;6040;49.358;11.140;2022-11-20T12:45:26;4.30;99.90
11961;DHT22;6040;49.358;11.140;2022-11-20T12:51:17;4.30;99.90
11961;DHT22;6040;49.358;11.140;2022-11-20T12:53:57;4.30;99.90
11961;DHT22;6040;49.358;11.140;2022-11-20T12:56:33;4.40;99.90
11961;DHT22;6040;49.358;11.140;2022-11-20T12:59:16;4.40;99.90
11961;DHT22;6040;49.358;11.140;2022-11-20T13:01:51;4.40;99.90
11961;DHT22;6040;49.358;11.140;2022-11-20T13:04:34;4.30;99.90
11961;DHT22;6040;49.358;11.140;2022-11-20T13:07:06;4.40;99.90
11961;DHT22;6040;49.358;11.140;2022-11-20T13:09:39;4.30;99.90
11961;DHT22;6040;49.358;11.140;2022-11-20T13:12:12;4.30;99.90
11961;DHT22;6040;49.358;11.140;2022-11-20T13:14:44;4.30;99.90
11961;DHT22;6040;49.358;11.140;2022-11-20T13:17:17;4.30;99.90
11961;DHT22;6040;49.358;11.140;2022-11-20T13:19:51;4.20;99.90
11961;DHT22;6040;49.358;11.140;2022-11-20T13:22:25;4.40;99.90
11961;DHT22;6040;49.358;11.140;2022-11-20T13:24:52;4.30;99.90
11961;DHT22;6040;49.358;11.140;2022-11-20T13:27:20;4.20;99.90
11961;DHT22;6040;49.358;11.140;2022-11-20T13:30:00;5.40;99.90
11961;DHT22;6040;49.358;11.140;2022-11-20T13:32:27;5.50;99.90
11961;DHT22;6040;49.358;11.140;2022-11-20T13:35:00;6.00;99.90
11961;DHT22;6040;49.358;11.140;2022-11-20T13:37:30;6.10;99.90
11961;DHT22;6040;49.358;11.140;2022-11-20T13:40:21;4.10;99.90
11961;DHT22;6040;49.358;11.140;2022-11-20T13:43:00;4.10;99.90
11961;DHT22;6040;49.358;11.140;2022-11-20T13:45:29;4.10;99.90
11961;DHT22;6040;49.358;11.140;2022-11-20T13:47:57;4.10;99.90
11961;DHT22;6040;49.358;11.140;2022-11-20T13:50:39;4.10;99.90
11961;DHT22;6040;49.358;11.140;2022-11-20T13:53:21;3.30;99.90
11961;DHT22;6040;49.358;11.140;2022-11-20T13:55:57;4.10;99.90
11961;DHT22;6040;49.358;11.140;2022-11-20T13:58:34;4.10;99.90
11961;DHT22;6040;49.358;11.140;2022-11-20T14:01:09;4.10;99.90
11961;DHT22;6040;49.358;11.140;2022-11-20T14:03:38;4.20;99.90
11961;DHT22;6040;49.358;11.140;2022-11-20T14:06:12;6.20;99.90
11961;DHT22;6040;49.358;11.140;2022-11-20T14:08:43;4.00;99.90
11961;DHT22;6040;49.358;11.140;2022-11-20T14:11:16;4.00;99.90
11961;DHT22;6040;49.358;11.140;2022-11-20T14:13:55;4.00;99.90
11961;DHT22;6040;49.358;11.140;2022-11-20T14:16:23;3.90;99.90
11961;DHT22;6040;49.358;11.140;2022-11-20T14:18:50;5.50;99.90
11961;DHT22;6040;49.358;11.140;2022-11-20T14:21:26;4.00;99.90
11961;DHT22;6040;49.358;11.140;2022-11-20T14:23:54;4.00;99.90
11961;DHT22;6040;49.358;11.140;2022-11-20T14:26:29;3.90;99.90
11961;DHT22;6040;49.358;11.140;2022-11-20T14:28:56;4.00;99.90
11961;DHT22;6040;49.358;11.140;2022-11-20T14:31:24;4.00;99.90
11961;DHT22;6040;49.358;11.140;2022-11-20T14:33:52;5.90;99.90
11961;DHT22;6040;49.358;11.140;2022-11-20T14:36:21;4.00;99.90
11961;DHT22;6040;49.358;11.140;2022-11-20T14:38:50;3.90;99.90
11961;DHT22;6040;49.358;11.140;2022-11-20T14:41:19;3.90;99.90
11961;DHT22;6040;49.358;11.140;2022-11-20T14:43:47;4.00;99.90
11961;DHT22;6040;49.358;11.140;2022-11-20T14:46:16;3.90;99.90
11961;DHT22;6040;49.358;11.140;2022-11-20T14:48:46;3.90;99.90
11961;DHT22;6040;49.358;11.140;2022-11-20T14:51:25;3.90;99.90
11961;DHT22;6040;49.358;11.140;2022-11-20T14:53:54;3.90;99.90
11961;DHT22;6040;49.358;11.140;2022-11-20T14:56:22;5.90;99.90
11961;DHT22;6040;49.358;11.140;2022-11-20T14:58:56;3.90;99.90
11961;DHT22;6040;49.358;11.140;2022-11-20T15:01:26;5.30;99.90
11961;DHT22;6040;49.358;11.140;2022-11-20T15:04:00;3.80;99.90
11961;DHT22;6040;49.358;11.140;2022-11-20T15:06:28;3.90;99.90
11961;DHT22;6040;49.358;11.140;2022-11-20T15:08:56;3.80;99.90
11961;DHT22;6040;49.358;11.140;2022-11-20T15:11:28;3.90;99.90
11961;DHT22;6040;49.358;11.140;2022-11-20T15:13:57;3.80;99.90
11961;DHT22;6040;49.358;11.140;2022-11-20T15:16:24;5.80;99.90
11961;DHT22;6040;49.358;11.140;2022-11-20T15:18:53;3.80;99.90
11961;DHT22;6040;49.358;11.140;2022-11-20T15:21:20;3.80;99.90
11961;DHT22;6040;49.358;11.140;2022-11-20T15:23:48;3.80;99.90
11961;DHT22;6040;49.358;11.140;2022-11-20T15:26:21;3.80;99.90
11961;DHT22;6040;49.358;11.140;2022-11-20T15:28:49;3.80;99.90
11961;DHT22;6040;49.358;11.140;2022-11-20T15:31:17;3.80;99.90
11961;DHT22;6040;49.358;11.140;2022-11-20T15:33:44;3.80;99.90
11961;DHT22;6040;49.358;11.140;2022-11-20T15:36:11;3.80;99.90
11961;DHT22;6040;49.358;11.140;2022-11-20T15:38:39;3.80;99.90
11961;DHT22;6040;49.358;11.140;2022-11-20T15:44:29;3.80;99.90
11961;DHT22;6040;49.358;11.140;2022-11-20T15:46:56;4.80;99.90
11961;DHT22;6040;49.358;11.140;2022-11-20T15:49:23;3.70;99.90
11961;DHT22;6040;49.358;11.140;2022-11-20T15:51:51;3.80;99.90
11961;DHT22;6040;49.358;11.140;2022-11-20T15:54:21;3.70;99.90
11961;DHT22;6040;49.358;11.140;2022-11-20T15:56:48;3.70;99.90
11961;DHT22;6040;49.358;11.140;2022-11-20T15:59:17;3.70;99.90
11961;DHT22;6040;49.358;11.140;2022-11-20T16:01:46;3.80;99.90
11961;DHT22;6040;49.358;11.140;2022-11-20T16:04:14;3.80;99.90
11961;DHT22;6040;49.358;11.140;2022-11-20T16:06:41;3.80;99.90
11961;DHT22;6040;49.358;11.140;2022-11-20T16:09:08;3.70;99.90
11961;DHT22;6040;49.358;11.140;2022-11-20T16:11:35;4.10;99.90
11961;DHT22;6040;49.358;11.140;2022-11-20T16:14:03;3.70;99.90
11961;DHT22;6040;49.358;11.140;2022-11-20T16:16:49;3.70;99.90
11961;DHT22;6040;49.358;11.140;2022-11-20T16:19:16;4.60;99.90
11961;DHT22;6040;49.358;11.140;2022-11-20T16:21:43;3.70;99.90
11961;DHT22;6040;49.358;11.140;2022-11-20T16:24:12;3.70;99.90
11961;DHT22;6040;49.358;11.140;2022-11-20T16:26:40;3.80;99.90
11961;DHT22;6040;49.358;11.140;2022-11-20T16:29:07;3.70;99.90
11961;DHT22;6040;49.358;11.140;2022-11-20T16:31:34;3.70;99.90
11961;DHT22;6040;49.358;11.140;2022-11-20T16:34:04;3.70;99.90